createdAt,value
2018-03-02T00:01:06.207Z,-11.00
2018-03-02T00:03:35.261Z,-11.10
2018-03-02T00:06:03.529Z,-11.10
2018-03-02T00:08:31.812Z,-11.00
2018-03-02T00:11:00.089Z,-11.00
2018-03-02T00:13:29.125Z,-11.20
2018-03-02T00:15:57.404Z,-11.00
2018-03-02T00:18:27.620Z,-11.00
2018-03-02T00:20:56.664Z,-10.80
2018-03-02T00:23:24.937Z,-11.10
2018-03-02T00:25:53.222Z,-10.80
2018-03-02T00:28:21.497Z,-11.00
2018-03-02T00:30:49.776Z,-10.70
2018-03-02T00:33:18.804Z,-10.70
2018-03-02T00:35:47.084Z,-10.90
2018-03-02T00:38:15.355Z,-10.80
2018-03-02T00:40:44.405Z,-11.00
2018-03-02T00:43:12.677Z,-10.60
2018-03-02T00:45:40.964Z,-10.80
2018-03-02T00:48:09.256Z,-10.70
2018-03-02T00:50:37.508Z,-11.20
2018-03-02T00:53:06.544Z,-10.80
2018-03-02T00:55:34.828Z,-10.60
2018-03-02T00:58:03.095Z,-10.80
2018-03-02T01:00:32.148Z,-10.70
2018-03-02T01:03:00.420Z,-10.50
2018-03-02T01:05:28.704Z,-10.30
2018-03-02T01:07:57.296Z,-10.40
2018-03-02T01:10:25.575Z,-10.90
2018-03-02T01:12:53.848Z,-10.60
2018-03-02T01:15:22.897Z,-10.90
2018-03-02T01:17:51.166Z,-10.80
2018-03-02T01:20:19.451Z,-10.50
2018-03-02T01:22:47.717Z,-10.80
2018-03-02T01:25:16.760Z,-10.90
2018-03-02T01:27:45.033Z,-10.90
2018-03-02T01:30:13.313Z,-10.80
2018-03-02T01:32:41.581Z,-10.80
2018-03-02T01:35:10.628Z,-10.60
2018-03-02T01:37:38.897Z,-10.70
2018-03-02T01:40:07.177Z,-11.00
2018-03-02T01:42:35.448Z,-10.80
2018-03-02T01:45:04.596Z,-11.20
2018-03-02T01:47:32.868Z,-11.30
2018-03-02T01:50:01.150Z,-11.20
2018-03-02T01:52:29.415Z,-11.40
2018-03-02T01:54:58.462Z,-11.30
2018-03-02T01:57:26.737Z,-11.40
2018-03-02T01:59:55.016Z,-11.30
2018-03-02T02:02:24.052Z,-11.10
2018-03-02T02:04:52.332Z,-11.20
2018-03-02T02:07:20.600Z,-11.30
2018-03-02T02:09:48.876Z,-11.20
2018-03-02T02:12:17.912Z,-11.80
2018-03-02T02:14:46.196Z,-11.50
2018-03-02T02:17:15.237Z,-11.90
2018-03-02T02:19:43.520Z,-11.70
2018-03-02T02:22:11.796Z,-12.10
2018-03-02T02:24:40.092Z,-12.10
2018-03-02T02:27:08.361Z,-12.20
2018-03-02T02:29:36.640Z,-11.90
2018-03-02T02:32:04.913Z,-12.00
2018-03-02T02:34:33.966Z,-11.80
2018-03-02T02:37:02.257Z,-12.00
2018-03-02T02:39:30.536Z,-11.60
2018-03-02T02:41:58.810Z,-11.60
2018-03-02T02:44:27.084Z,-11.50
2018-03-02T02:46:55.344Z,-11.30
2018-03-02T02:49:24.410Z,-10.60
2018-03-02T02:51:52.691Z,-11.10
2018-03-02T02:54:21.880Z,-10.70
2018-03-02T02:56:50.161Z,-10.60
2018-03-02T02:59:18.437Z,-10.90
2018-03-02T03:01:47.493Z,-10.70
2018-03-02T03:04:15.765Z,-10.80
2018-03-02T03:06:44.044Z,-10.90
2018-03-02T03:09:12.316Z,-10.80
2018-03-02T03:11:40.596Z,-10.70
2018-03-02T03:14:09.632Z,-11.20
2018-03-02T03:16:37.907Z,-11.20
2018-03-02T03:19:06.180Z,-11.40
2018-03-02T03:21:35.233Z,-11.20
2018-03-02T03:24:03.500Z,-10.90
2018-03-02T03:26:31.784Z,-11.40
2018-03-02T03:29:00.056Z,-11.40
2018-03-02T03:31:29.117Z,-11.50
2018-03-02T03:33:57.380Z,-11.20
2018-03-02T03:36:25.660Z,-11.40
2018-03-02T03:38:53.927Z,-11.70
2018-03-02T03:41:22.207Z,-12.00
2018-03-02T03:43:51.255Z,-12.10
2018-03-02T03:46:19.517Z,-11.80
2018-03-02T03:48:47.805Z,-12.10
2018-03-02T03:51:16.126Z,-12.00
2018-03-02T03:53:45.132Z,-11.50
2018-03-02T03:56:13.400Z,-11.60
2018-03-02T03:58:42.283Z,-11.50
2018-03-02T04:01:10.560Z,-11.10
2018-03-02T04:03:40.517Z,-10.60
2018-03-02T04:06:09.723Z,-10.90
2018-03-02T04:08:37.991Z,-10.60
2018-03-02T04:11:07.020Z,-10.40
2018-03-02T04:13:35.300Z,-10.20
2018-03-02T04:16:03.572Z,-10.60
2018-03-02T04:18:32.620Z,-10.40
2018-03-02T04:21:00.887Z,-10.30
2018-03-02T04:23:29.171Z,-10.50
2018-03-02T04:25:57.559Z,-10.90
2018-03-02T04:28:25.843Z,-10.90
2018-03-02T04:30:54.111Z,-10.40
2018-03-02T04:33:23.190Z,-10.90
2018-03-02T04:35:51.432Z,-10.80
2018-03-02T04:38:19.713Z,-11.00
2018-03-02T04:40:47.984Z,-11.00
2018-03-02T04:43:17.020Z,-11.10
2018-03-02T04:45:45.308Z,-11.10
2018-03-02T04:48:13.579Z,-10.90
2018-03-02T04:50:41.855Z,-10.70
2018-03-02T04:53:10.891Z,-10.60
2018-03-02T04:55:39.172Z,-10.80
2018-03-02T04:58:07.460Z,-10.30
2018-03-02T05:00:35.741Z,-10.30
2018-03-02T05:03:04.013Z,-10.30
2018-03-02T05:05:33.064Z,-10.60
2018-03-02T05:08:01.343Z,-10.90
2018-03-02T05:10:29.632Z,-10.50
2018-03-02T05:12:57.906Z,-10.70
2018-03-02T05:15:26.196Z,-10.60
2018-03-02T05:17:54.468Z,-10.70
2018-03-02T05:20:23.515Z,-10.10
2018-03-02T05:22:51.805Z,-10.40
2018-03-02T05:25:20.097Z,-10.10
2018-03-02T05:27:48.344Z,-10.00
2018-03-02T05:30:16.629Z,-9.80
2018-03-02T05:32:45.659Z,-9.60
2018-03-02T05:35:13.946Z,-9.30
2018-03-02T05:37:42.208Z,-9.20
2018-03-02T05:40:11.252Z,-8.90
2018-03-02T05:42:39.524Z,-9.00
2018-03-02T05:45:07.808Z,-9.00
2018-03-02T05:47:36.081Z,-8.80
2018-03-02T05:50:05.148Z,-8.60
2018-03-02T05:52:33.412Z,-8.90
2018-03-02T05:55:01.689Z,-8.50
2018-03-02T05:57:29.956Z,-8.50
2018-03-02T05:59:58.989Z,-8.60
2018-03-02T06:02:27.253Z,-8.80
2018-03-02T06:04:55.532Z,-8.70
2018-03-02T06:07:24.568Z,-8.70
2018-03-02T06:09:52.864Z,-8.80
2018-03-02T06:12:21.135Z,-8.60
2018-03-02T06:14:49.400Z,-8.70
2018-03-02T06:17:18.448Z,-8.80
2018-03-02T06:19:46.705Z,-8.70
2018-03-02T06:22:14.986Z,-8.60
2018-03-02T06:24:43.248Z,-8.40
2018-03-02T06:27:11.528Z,-8.40
2018-03-02T06:29:39.788Z,-8.60
2018-03-02T06:32:08.064Z,-8.30
2018-03-02T06:34:36.324Z,-8.40
2018-03-02T06:37:05.393Z,-8.50
2018-03-02T06:39:33.629Z,-8.40
2018-03-02T06:42:01.912Z,-8.50
2018-03-02T06:44:30.204Z,-8.30
2018-03-02T06:46:58.475Z,-8.30
2018-03-02T06:49:27.510Z,-8.30
2018-03-02T06:51:55.789Z,-8.40
2018-03-02T06:54:24.056Z,-8.20
2018-03-02T06:56:52.327Z,-8.10
2018-03-02T06:59:20.607Z,-8.10
2018-03-02T07:01:48.876Z,-8.00
2018-03-02T07:04:17.161Z,-8.00
2018-03-02T07:06:45.407Z,-7.80
2018-03-02T07:09:14.433Z,-7.60
2018-03-02T07:11:42.718Z,-7.80
2018-03-02T07:14:10.976Z,-7.50
2018-03-02T07:16:40.012Z,-7.70
2018-03-02T07:19:08.284Z,-7.60
2018-03-02T07:21:37.346Z,-7.30
2018-03-02T07:24:05.600Z,-7.60
2018-03-02T07:26:33.873Z,-7.40
2018-03-02T07:29:02.131Z,-7.40
2018-03-02T07:31:30.416Z,-7.30
2018-03-02T07:33:58.679Z,-7.30
2018-03-02T07:36:26.960Z,-6.70
2018-03-02T07:38:55.216Z,-6.90
2018-03-02T07:41:23.501Z,-6.50
2018-03-02T07:43:51.760Z,-6.40
2018-03-02T07:46:20.804Z,-6.30
2018-03-02T07:48:49.068Z,-6.20
2018-03-02T07:51:18.092Z,-6.00
2018-03-02T07:53:46.360Z,-6.50
2018-03-02T07:56:14.619Z,-6.00
2018-03-02T07:58:42.895Z,-5.90
2018-03-02T08:01:11.553Z,-5.80
2018-03-02T08:03:39.824Z,-6.10
2018-03-02T08:06:08.852Z,-5.80
2018-03-02T08:08:37.129Z,-5.70
2018-03-02T08:11:06.151Z,-5.60
2018-03-02T08:13:34.419Z,-6.00
2018-03-02T08:16:02.684Z,-6.00
2018-03-02T08:18:30.964Z,-5.70
2018-03-02T08:20:59.223Z,-5.90
2018-03-02T08:23:27.509Z,-5.80
2018-03-02T08:25:55.764Z,-5.60
2018-03-02T08:28:24.032Z,-5.40
2018-03-02T08:30:53.056Z,-5.00
2018-03-02T08:33:21.324Z,-5.10
2018-03-02T08:35:50.348Z,-4.80
2018-03-02T08:38:18.615Z,-4.90
2018-03-02T08:40:47.721Z,-4.80
2018-03-02T08:43:15.988Z,-4.90
2018-03-02T08:45:44.240Z,-4.60
2018-03-02T08:48:12.507Z,-4.60
2018-03-02T08:50:40.763Z,-4.60
2018-03-02T08:53:09.042Z,-4.60
2018-03-02T08:55:37.292Z,-4.50
2018-03-02T08:58:05.560Z,-4.50
2018-03-02T09:00:33.816Z,-4.20
2018-03-02T09:03:02.080Z,-4.20
2018-03-02T09:05:30.348Z,-4.00
2018-03-02T09:07:58.610Z,-4.00
2018-03-02T09:10:27.636Z,-3.50
2018-03-02T09:12:55.900Z,-3.90
2018-03-02T09:15:24.164Z,-3.80
2018-03-02T09:17:52.428Z,-3.40
2018-03-02T09:20:20.760Z,-3.30
2018-03-02T09:22:49.036Z,-3.70
2018-03-02T09:25:18.064Z,-3.10
2018-03-02T09:27:47.089Z,-3.30
2018-03-02T09:30:16.104Z,-2.60
2018-03-02T09:32:44.389Z,-3.00
2018-03-02T09:35:13.407Z,-2.60
2018-03-02T09:37:41.672Z,-2.90
2018-03-02T09:40:09.924Z,-2.60
2018-03-02T09:42:38.960Z,-2.60
2018-03-02T09:45:07.212Z,-2.70
2018-03-02T09:47:35.488Z,-3.00
2018-03-02T09:50:03.739Z,-3.00
2018-03-02T09:52:31.996Z,-3.40
2018-03-02T09:55:01.019Z,-3.40
2018-03-02T09:57:29.280Z,-3.40
2018-03-02T09:59:58.305Z,-3.30
2018-03-02T10:02:26.577Z,-3.20
2018-03-02T10:04:55.597Z,-3.30
2018-03-02T10:07:23.864Z,-2.90
2018-03-02T10:09:52.128Z,-2.70
2018-03-02T10:12:20.400Z,-2.70
2018-03-02T10:14:48.651Z,-3.00
2018-03-02T10:17:16.919Z,-2.90
2018-03-02T10:19:45.938Z,-2.70
2018-03-02T10:22:14.205Z,-3.20
2018-03-02T10:24:42.465Z,-3.00
2018-03-02T10:27:10.740Z,-3.20
2018-03-02T10:29:38.991Z,-2.90
2018-03-02T10:32:07.256Z,-3.10
2018-03-02T10:34:36.280Z,-3.00
2018-03-02T10:37:05.325Z,-3.20
2018-03-02T10:39:33.592Z,-2.90
2018-03-02T10:42:01.850Z,-2.70
2018-03-02T10:44:30.873Z,-2.80
2018-03-02T10:46:59.136Z,-3.00
2018-03-02T10:49:28.176Z,-2.90
2018-03-02T10:51:56.476Z,-3.20
2018-03-02T10:54:24.749Z,-3.00
2018-03-02T10:56:53.010Z,-3.40
2018-03-02T10:59:21.283Z,-3.30
2018-03-02T11:01:54.345Z,-3.60
2018-03-02T11:04:37.508Z,-3.30
2018-03-02T11:07:05.770Z,-3.20
2018-03-02T11:09:34.031Z,-2.80
2018-03-02T11:12:02.292Z,-3.10
2018-03-02T11:14:30.556Z,-3.40
2018-03-02T11:16:58.813Z,-3.40
2018-03-02T11:19:27.076Z,-3.50
2018-03-02T11:21:56.101Z,-3.40
2018-03-02T11:24:24.368Z,-3.60
2018-03-02T11:26:53.389Z,-3.60
2018-03-02T11:29:21.980Z,-3.70
2018-03-02T11:31:50.240Z,-3.60
2018-03-02T11:34:18.504Z,-3.40
2018-03-02T11:36:46.769Z,-3.20
2018-03-02T11:39:15.046Z,-3.50
2018-03-02T11:41:43.300Z,-3.50
2018-03-02T11:44:12.329Z,-3.40
2018-03-02T11:46:40.586Z,-3.40
2018-03-02T11:49:08.848Z,-3.40
2018-03-02T11:51:37.100Z,-3.00
2018-03-02T11:54:05.401Z,-2.90
2018-03-02T11:56:34.388Z,-2.70
2018-03-02T11:59:02.651Z,-3.10
2018-03-02T12:01:31.683Z,-3.20
2018-03-02T12:03:59.948Z,-3.20
2018-03-02T12:06:28.968Z,-3.20
2018-03-02T12:08:57.244Z,-3.20
2018-03-02T12:11:26.269Z,-3.30
2018-03-02T12:13:54.536Z,-3.20
2018-03-02T12:16:23.555Z,-3.20
2018-03-02T12:18:51.825Z,-3.20
2018-03-02T12:21:20.853Z,-3.00
2018-03-02T12:23:49.887Z,-3.20
2018-03-02T12:26:18.148Z,-3.20
2018-03-02T12:28:46.411Z,-2.90
2018-03-02T12:31:14.668Z,-3.40
2018-03-02T12:33:42.988Z,-3.70
2018-03-02T12:36:11.189Z,-4.00
2018-03-02T12:38:40.223Z,-4.10
2018-03-02T12:41:08.485Z,-4.20
2018-03-02T12:43:37.516Z,-4.20
2018-03-02T12:46:05.775Z,-4.20
2018-03-02T12:48:34.908Z,-4.60
2018-03-02T12:51:03.160Z,-4.30
2018-03-02T12:53:32.203Z,-4.00
2018-03-02T12:56:00.460Z,-4.20
2018-03-02T12:58:29.500Z,-4.20
2018-03-02T13:00:57.755Z,-4.30
2018-03-02T13:03:26.792Z,-4.30
2018-03-02T13:05:55.059Z,-4.50
2018-03-02T13:08:24.089Z,-4.30
2018-03-02T13:10:52.344Z,-4.40
2018-03-02T13:13:21.383Z,-4.30
2018-03-02T13:15:49.644Z,-4.40
2018-03-02T13:18:36.473Z,-4.50
2018-03-02T13:21:04.964Z,-4.30
2018-03-02T13:23:34.006Z,-4.50
2018-03-02T13:26:02.270Z,-4.40
2018-03-02T13:28:46.292Z,-4.40
2018-03-02T13:31:14.552Z,-4.50
2018-03-02T13:34:00.671Z,-4.60
2018-03-02T13:36:28.987Z,-4.30
2018-03-02T13:38:57.249Z,-4.20
2018-03-02T13:41:43.412Z,-4.20
2018-03-02T13:44:11.679Z,-4.20
2018-03-02T13:46:40.708Z,-4.00
2018-03-02T13:49:26.843Z,-3.80
2018-03-02T13:51:55.092Z,-4.00
2018-03-02T13:54:23.394Z,-3.60
2018-03-02T13:57:09.356Z,-3.80
2018-03-02T13:59:37.620Z,-3.80
2018-03-02T14:02:05.878Z,-3.80
2018-03-02T14:04:53.044Z,-3.60
2018-03-02T14:07:21.315Z,-3.70
2018-03-02T14:09:49.603Z,-3.70
2018-03-02T14:12:17.863Z,-3.60
2018-03-02T14:14:46.128Z,-3.50
2018-03-02T14:17:15.167Z,-3.80
2018-03-02T14:19:44.188Z,-3.80
2018-03-02T14:22:12.454Z,-3.80
2018-03-02T14:24:42.311Z,-3.80
2018-03-02T14:27:10.568Z,-3.60
2018-03-02T14:29:38.844Z,-3.80
2018-03-02T14:32:07.872Z,-3.80
2018-03-02T14:34:36.133Z,-3.80
2018-03-02T14:37:05.160Z,-4.00
2018-03-02T14:39:33.462Z,-3.80
2018-03-02T14:42:02.453Z,-4.00
2018-03-02T14:44:30.703Z,-4.00
2018-03-02T14:46:58.967Z,-4.10
2018-03-02T14:49:27.215Z,-3.90
2018-03-02T14:51:55.483Z,-4.10
2018-03-02T14:54:24.499Z,-4.20
2018-03-02T14:56:52.765Z,-4.40
2018-03-02T14:59:21.048Z,-4.30
2018-03-02T15:01:49.308Z,-4.40
2018-03-02T15:04:17.563Z,-4.60
2018-03-02T15:06:45.828Z,-4.70
2018-03-02T15:09:14.848Z,-4.60
2018-03-02T15:11:43.114Z,-4.80
2018-03-02T15:14:11.363Z,-4.80
2018-03-02T15:16:39.627Z,-5.00
2018-03-02T15:19:07.879Z,-4.80
2018-03-02T15:21:36.915Z,-5.20
2018-03-02T15:24:05.174Z,-4.90
2018-03-02T15:26:34.206Z,-5.20
2018-03-02T15:29:02.467Z,-5.20
2018-03-02T15:31:31.492Z,-5.10
2018-03-02T15:33:59.762Z,-5.20
2018-03-02T15:36:28.792Z,-5.20
2018-03-02T15:38:57.047Z,-5.20
2018-03-02T15:41:25.315Z,-5.10
2018-03-02T15:43:53.576Z,-5.40
2018-03-02T15:46:21.840Z,-5.40
2018-03-02T15:48:50.099Z,-5.40
2018-03-02T15:51:18.366Z,-5.50
2018-03-02T15:53:46.620Z,-5.60
2018-03-02T15:56:14.892Z,-5.70
2018-03-02T15:58:43.147Z,-5.80
2018-03-02T16:01:11.420Z,-5.60
2018-03-02T16:03:39.674Z,-5.60
2018-03-02T16:06:07.940Z,-5.80
2018-03-02T16:08:36.963Z,-6.00
2018-03-02T16:11:05.232Z,-5.80
2018-03-02T16:13:34.248Z,-5.90
2018-03-02T16:16:02.525Z,-6.30
2018-03-02T16:18:31.544Z,-6.10
2018-03-02T16:20:59.808Z,-6.20
2018-03-02T16:23:28.826Z,-6.10
2018-03-02T16:25:57.110Z,-6.30
2018-03-02T16:28:26.131Z,-6.30
2018-03-02T16:30:54.400Z,-6.30
2018-03-02T16:33:23.422Z,-6.70
2018-03-02T16:35:51.684Z,-6.50
2018-03-02T16:38:20.707Z,-6.70
2018-03-02T16:40:48.975Z,-6.90
2018-03-02T16:43:17.999Z,-6.70
2018-03-02T16:45:46.284Z,-7.10
2018-03-02T16:48:15.300Z,-6.90
2018-03-02T16:50:44.006Z,-7.10
2018-03-02T16:53:13.082Z,-7.20
2018-03-02T16:55:41.365Z,-7.00
2018-03-02T16:58:09.617Z,-7.10
2018-03-02T17:00:38.651Z,-7.40
2018-03-02T17:03:06.908Z,-7.40
2018-03-02T17:05:35.211Z,-7.40
2018-03-02T17:08:03.431Z,-7.50
2018-03-02T17:10:32.455Z,-7.40
2018-03-02T17:13:00.723Z,-7.30
2018-03-02T17:15:29.748Z,-7.50
2018-03-02T17:17:58.020Z,-7.60
2018-03-02T17:20:27.046Z,-7.80
2018-03-02T17:22:55.302Z,-7.70
2018-03-02T17:25:23.558Z,-7.80
2018-03-02T17:27:51.828Z,-7.80
2018-03-02T17:30:20.086Z,-7.70
2018-03-02T17:32:49.116Z,-7.80
2018-03-02T17:35:17.371Z,-7.80
2018-03-02T17:37:46.403Z,-7.80
2018-03-02T17:40:14.659Z,-8.00
2018-03-02T17:42:43.691Z,-7.80
2018-03-02T17:45:11.985Z,-7.80
2018-03-02T17:47:40.256Z,-7.80
2018-03-02T17:50:09.279Z,-7.90
2018-03-02T17:52:37.559Z,-8.20
2018-03-02T17:55:06.580Z,-8.10
2018-03-02T17:57:34.843Z,-8.20
2018-03-02T18:00:03.914Z,-8.40
2018-03-02T18:02:32.131Z,-8.30
2018-03-02T18:05:01.159Z,-8.20
2018-03-02T18:07:29.439Z,-8.30
2018-03-02T18:09:58.450Z,-8.30
2018-03-02T18:12:26.719Z,-8.10
2018-03-02T18:14:55.747Z,-8.40
2018-03-02T18:17:24.011Z,-8.10
2018-03-02T18:19:53.039Z,-8.30
2018-03-02T18:22:21.324Z,-8.10
2018-03-02T18:24:49.578Z,-8.40
2018-03-02T18:27:17.848Z,-8.10
2018-03-02T18:29:46.111Z,-8.30
2018-03-02T18:32:14.379Z,-8.30
2018-03-02T18:34:42.637Z,-8.20
2018-03-02T18:37:10.907Z,-8.30
2018-03-02T18:39:39.167Z,-8.30
2018-03-02T18:42:07.435Z,-8.30
2018-03-02T18:44:35.693Z,-8.40
2018-03-02T18:47:04.727Z,-8.40
2018-03-02T18:49:32.998Z,-8.30
2018-03-02T18:52:02.031Z,-8.60
2018-03-02T18:54:30.300Z,-8.50
2018-03-02T18:56:58.562Z,-8.20
2018-03-02T18:59:26.820Z,-8.10
2018-03-02T19:01:55.091Z,-8.30
2018-03-02T19:04:23.351Z,-8.10
2018-03-02T19:06:51.629Z,-8.30
2018-03-02T19:09:20.643Z,-8.30
2018-03-02T19:11:48.911Z,-8.60
2018-03-02T19:14:17.163Z,-8.40
2018-03-02T19:16:45.427Z,-8.50
2018-03-02T19:19:13.687Z,-8.30
2018-03-02T19:21:42.755Z,-8.50
2018-03-02T19:24:11.011Z,-8.50
2018-03-02T19:26:39.279Z,-8.50
2018-03-02T19:29:08.308Z,-8.30
2018-03-02T19:31:36.572Z,-8.60
2018-03-02T19:34:04.827Z,-8.50
2018-03-02T19:36:33.083Z,-8.40
2018-03-02T19:39:01.351Z,-8.30
2018-03-02T19:41:29.607Z,-8.70
2018-03-02T19:43:58.639Z,-8.50
2018-03-02T19:46:26.903Z,-8.50
2018-03-02T19:48:55.930Z,-8.80
2018-03-02T19:51:24.187Z,-8.80
2018-03-02T19:53:52.459Z,-8.70
2018-03-02T19:56:20.715Z,-8.70
2018-03-02T19:58:48.984Z,-8.70
2018-03-02T20:01:17.247Z,-8.70
2018-03-02T20:03:46.344Z,-8.70
2018-03-02T20:06:14.559Z,-8.80
2018-03-02T20:08:42.827Z,-8.60
2018-03-02T20:11:11.890Z,-8.60
2018-03-02T20:13:40.124Z,-8.80
2018-03-02T20:16:09.148Z,-8.60
2018-03-02T20:18:37.418Z,-8.90
2018-03-02T20:21:06.448Z,-8.90
2018-03-02T20:23:34.716Z,-9.00
2018-03-02T20:26:03.743Z,-8.60
2018-03-02T20:28:32.007Z,-8.60
2018-03-02T20:31:01.036Z,-8.80
2018-03-02T20:33:29.304Z,-8.60
2018-03-02T20:35:58.328Z,-8.70
2018-03-02T20:38:26.599Z,-8.40
2018-03-02T20:40:55.627Z,-8.60
2018-03-02T20:43:23.887Z,-8.40
2018-03-02T20:45:52.911Z,-8.60
2018-03-02T20:48:21.179Z,-8.50
2018-03-02T20:50:50.220Z,-8.20
2018-03-02T20:53:18.483Z,-8.50
2018-03-02T20:55:47.507Z,-8.20
2018-03-02T20:58:15.824Z,-8.40
2018-03-02T21:00:44.044Z,-8.50
2018-03-02T21:03:12.311Z,-8.60
2018-03-02T21:05:40.575Z,-8.50
2018-03-02T21:08:08.847Z,-8.20
2018-03-02T21:10:37.106Z,-8.20
2018-03-02T21:13:05.373Z,-8.40
2018-03-02T21:15:33.631Z,-8.40
2018-03-02T21:18:01.900Z,-8.30
2018-03-02T21:20:30.156Z,-8.10
2018-03-02T21:22:59.205Z,-8.40
2018-03-02T21:25:27.442Z,-8.50
2018-03-02T21:27:55.707Z,-8.30
2018-03-02T21:30:23.972Z,-8.40
2018-03-02T21:32:52.235Z,-8.10
2018-03-02T21:35:20.492Z,-8.30
2018-03-02T21:37:48.759Z,-8.30
2018-03-02T21:40:17.015Z,-8.40
2018-03-02T21:42:45.279Z,-8.40
2018-03-02T21:45:14.300Z,-8.30
2018-03-02T21:47:42.556Z,-8.30
2018-03-02T21:50:10.827Z,-8.30
2018-03-02T21:52:39.083Z,-8.40
2018-03-02T21:55:07.352Z,-8.30
2018-03-02T21:57:35.606Z,-8.50
2018-03-02T22:00:03.871Z,-8.40
2018-03-02T22:02:32.129Z,-8.40
2018-03-02T22:05:00.396Z,-8.40
2018-03-02T22:07:28.652Z,-8.50
2018-03-02T22:09:56.920Z,-8.60
2018-03-02T22:12:25.175Z,-8.70
2018-03-02T22:14:54.207Z,-8.50
2018-03-02T22:17:22.472Z,-8.50
2018-03-02T22:19:51.427Z,-8.70
2018-03-02T22:22:19.679Z,-8.70
2018-03-02T22:24:47.946Z,-8.80
2018-03-02T22:27:16.203Z,-8.90
2018-03-02T22:29:45.239Z,-8.80
2018-03-02T22:32:13.494Z,-8.80
2018-03-02T22:34:41.759Z,-8.70
2018-03-02T22:37:10.018Z,-8.90
2018-03-02T22:39:38.280Z,-8.80
2018-03-02T22:42:06.554Z,-8.80
2018-03-02T22:44:34.802Z,-8.60
2018-03-02T22:47:03.056Z,-8.70
2018-03-02T22:49:31.319Z,-8.60
2018-03-02T22:52:00.341Z,-8.70
2018-03-02T22:54:28.603Z,-8.50
2018-03-02T22:56:57.637Z,-8.70
2018-03-02T22:59:25.903Z,-8.70
2018-03-02T23:01:54.930Z,-8.80
2018-03-02T23:04:23.206Z,-8.80
2018-03-02T23:06:52.235Z,-8.60
2018-03-02T23:09:20.506Z,-9.00
2018-03-02T23:11:49.532Z,-8.50
2018-03-02T23:14:17.800Z,-8.70
2018-03-02T23:16:46.819Z,-8.80
2018-03-02T23:19:15.088Z,-8.60
2018-03-02T23:21:44.811Z,-8.80
2018-03-02T23:24:13.847Z,-8.60
2018-03-02T23:26:42.103Z,-8.70
2018-03-02T23:29:11.146Z,-8.60
2018-03-02T23:31:39.399Z,-8.60
2018-03-02T23:34:08.436Z,-9.00
2018-03-02T23:36:36.691Z,-8.80
2018-03-02T23:39:05.724Z,-8.70
2018-03-02T23:41:33.980Z,-8.80
2018-03-02T23:44:03.011Z,-8.70
2018-03-02T23:46:31.271Z,-8.70
2018-03-02T23:49:00.308Z,-8.50
2018-03-02T23:51:28.559Z,-8.70
2018-03-02T23:53:57.597Z,-8.50
2018-03-02T23:56:25.850Z,-8.60
2018-03-02T23:58:54.115Z,-8.50
